GRMLN EGNS-EGPK
Flight info
| Callsign | GRMLN |
|---|---|
| Flight time | 0h 41m |
| Altitude | 2500 |
| Route | EGNS VP387 VP437 EGPK |
| Aircraft | EC45/L-SFG/C |
Departure
| Time | 2026-04-23 18:57 |
|---|---|
| Airport | Isle of Man Airport (EGNS) |
Arrival
| Time | 2026-04-23 19:38 |
|---|---|
| Airport | Glasgow Prestwick Airport (EGPK) |
| Time | Latitude | Longitude | Altitude | Speed | Heading |
|---|---|---|---|---|---|
| 2026-04-23 18:55 | 54.08212 | -4.63909 | 47 ft | 2 kts | 175° |
| 2026-04-23 18:55 | 54.08159 | -4.63889 | 59 ft | 14 kts | 155° |
| 2026-04-23 18:55 | 54.08182 | -4.63564 | 118 ft | 61 kts | 76° |
| 2026-04-23 18:55 | 54.08295 | -4.62653 | 188 ft | 88 kts | 87° |
| 2026-04-23 18:56 | 54.08364 | -4.61986 | 307 ft | 85 kts | 85° |
| 2026-04-23 18:56 | 54.08528 | -4.60694 | 511 ft | 85 kts | 78° |
| 2026-04-23 18:56 | 54.08755 | -4.59806 | 516 ft | 96 kts | 28° |
| 2026-04-23 18:56 | 54.09473 | -4.59984 | 541 ft | 111 kts | 347° |
| 2026-04-23 18:57 | 54.10141 | -4.60669 | 684 ft | 116 kts | 324° |
| 2026-04-23 18:57 | 54.10784 | -4.61572 | 910 ft | 129 kts | 329° |
| 2026-04-23 18:57 | 54.11555 | -4.62479 | 1168 ft | 134 kts | 332° |
| 2026-04-23 18:57 | 54.12331 | -4.63278 | 1427 ft | 128 kts | 336° |
| 2026-04-23 18:58 | 54.13105 | -4.63965 | 1687 ft | 123 kts | 339° |
| 2026-04-23 18:58 | 54.13860 | -4.64566 | 1861 ft | 120 kts | 341° |
| 2026-04-23 18:58 | 54.14640 | -4.65128 | 2049 ft | 126 kts | 341° |
| 2026-04-23 18:58 | 54.15488 | -4.65689 | 2232 ft | 133 kts | 342° |
| 2026-04-23 18:59 | 54.16354 | -4.66231 | 2369 ft | 134 kts | 341° |
| 2026-04-23 18:59 | 54.17241 | -4.66765 | 2431 ft | 136 kts | 342° |
| 2026-04-23 18:59 | 54.18140 | -4.67294 | 2457 ft | 137 kts | 343° |
| 2026-04-23 18:59 | 54.19037 | -4.67812 | 2465 ft | 136 kts | 343° |
| 2026-04-23 19:00 | 54.19936 | -4.68317 | 2471 ft | 136 kts | 343° |
| 2026-04-23 19:00 | 54.20831 | -4.68810 | 2478 ft | 138 kts | 344° |
| 2026-04-23 19:00 | 54.21741 | -4.69309 | 2482 ft | 137 kts | 344° |
| 2026-04-23 19:00 | 54.22673 | -4.69568 | 2482 ft | 135 kts | 4° |
| 2026-04-23 19:01 | 54.23604 | -4.69450 | 2481 ft | 133 kts | 11° |
| 2026-04-23 19:01 | 54.24518 | -4.69251 | 2480 ft | 133 kts | 12° |
| 2026-04-23 19:01 | 54.25436 | -4.69029 | 2481 ft | 133 kts | 12° |
| 2026-04-23 19:01 | 54.26349 | -4.68801 | 2484 ft | 132 kts | 13° |
| 2026-04-23 19:02 | 54.26950 | -4.68647 | 2484 ft | 132 kts | 13° |
| 2026-04-23 19:02 | 54.28166 | -4.68332 | 2483 ft | 132 kts | 13° |
| 2026-04-23 19:02 | 54.29060 | -4.68098 | 2483 ft | 131 kts | 13° |
| 2026-04-23 19:02 | 54.29964 | -4.67858 | 2482 ft | 132 kts | 14° |
| 2026-04-23 19:03 | 54.30878 | -4.67614 | 2486 ft | 133 kts | 13° |
| 2026-04-23 19:03 | 54.31786 | -4.67373 | 2486 ft | 131 kts | 13° |
| 2026-04-23 19:03 | 54.32692 | -4.67132 | 2485 ft | 132 kts | 14° |
| 2026-04-23 19:03 | 54.33600 | -4.66888 | 2487 ft | 132 kts | 13° |
| 2026-04-23 19:04 | 54.34511 | -4.66644 | 2483 ft | 133 kts | 13° |
| 2026-04-23 19:04 | 54.35427 | -4.66397 | 2483 ft | 133 kts | 13° |
| 2026-04-23 19:04 | 54.36340 | -4.66153 | 2486 ft | 132 kts | 14° |
| 2026-04-23 19:04 | 54.37235 | -4.65911 | 2485 ft | 132 kts | 14° |
| 2026-04-23 19:05 | 54.38148 | -4.65663 | 2482 ft | 134 kts | 14° |
| 2026-04-23 19:05 | 54.39067 | -4.65413 | 2486 ft | 133 kts | 13° |
| 2026-04-23 19:05 | 54.39983 | -4.65167 | 2487 ft | 132 kts | 14° |
| 2026-04-23 19:05 | 54.40892 | -4.64924 | 2485 ft | 132 kts | 13° |
| 2026-04-23 19:06 | 54.41802 | -4.64676 | 2486 ft | 133 kts | 13° |
| 2026-04-23 19:06 | 54.42720 | -4.64428 | 2491 ft | 133 kts | 13° |
| 2026-04-23 19:06 | 54.43626 | -4.64183 | 2491 ft | 133 kts | 12° |
| 2026-04-23 19:06 | 54.44539 | -4.63936 | 2486 ft | 133 kts | 13° |
| 2026-04-23 19:07 | 54.45453 | -4.63688 | 2485 ft | 133 kts | 13° |
| 2026-04-23 19:07 | 54.46369 | -4.63441 | 2485 ft | 133 kts | 13° |
| 2026-04-23 19:07 | 54.47280 | -4.63195 | 2485 ft | 133 kts | 13° |
| 2026-04-23 19:07 | 54.48198 | -4.62944 | 2488 ft | 134 kts | 13° |
| 2026-04-23 19:08 | 54.49119 | -4.62694 | 2488 ft | 134 kts | 13° |
| 2026-04-23 19:08 | 54.50033 | -4.62449 | 2487 ft | 132 kts | 13° |
| 2026-04-23 19:08 | 54.50946 | -4.62200 | 2488 ft | 133 kts | 13° |
| 2026-04-23 19:08 | 54.51845 | -4.61956 | 2488 ft | 132 kts | 13° |
| 2026-04-23 19:09 | 54.52755 | -4.61710 | 2487 ft | 132 kts | 13° |
| 2026-04-23 19:09 | 54.53662 | -4.61464 | 2483 ft | 132 kts | 13° |
| 2026-04-23 19:09 | 54.54571 | -4.61216 | 2491 ft | 132 kts | 13° |
| 2026-04-23 19:09 | 54.55480 | -4.60968 | 2491 ft | 132 kts | 13° |
| 2026-04-23 19:10 | 54.56388 | -4.60722 | 2490 ft | 133 kts | 13° |
| 2026-04-23 19:10 | 54.57302 | -4.60472 | 2490 ft | 133 kts | 13° |
| 2026-04-23 19:10 | 54.58215 | -4.60224 | 2491 ft | 132 kts | 13° |
| 2026-04-23 19:10 | 54.59119 | -4.59981 | 2490 ft | 131 kts | 13° |
| 2026-04-23 19:11 | 54.60014 | -4.59737 | 2487 ft | 132 kts | 13° |
| 2026-04-23 19:11 | 54.60927 | -4.59487 | 2489 ft | 133 kts | 13° |
| 2026-04-23 19:11 | 54.61837 | -4.59240 | 2489 ft | 132 kts | 13° |
| 2026-04-23 19:11 | 54.62745 | -4.58992 | 2493 ft | 133 kts | 13° |
| 2026-04-23 19:12 | 54.63349 | -4.58826 | 2494 ft | 133 kts | 13° |
| 2026-04-23 19:12 | 54.64563 | -4.58498 | 2496 ft | 131 kts | 13° |
| 2026-04-23 19:12 | 54.65467 | -4.58251 | 2496 ft | 132 kts | 13° |
| 2026-04-23 19:12 | 54.66377 | -4.58000 | 2492 ft | 133 kts | 13° |
| 2026-04-23 19:13 | 54.67277 | -4.57753 | 2493 ft | 133 kts | 14° |
| 2026-04-23 19:13 | 54.68186 | -4.57505 | 2493 ft | 132 kts | 13° |
| 2026-04-23 19:13 | 54.69093 | -4.57257 | 2493 ft | 132 kts | 14° |
| 2026-04-23 19:13 | 54.70001 | -4.57008 | 2494 ft | 133 kts | 13° |
| 2026-04-23 19:14 | 54.70913 | -4.56757 | 2497 ft | 133 kts | 13° |
| 2026-04-23 19:14 | 54.71826 | -4.56508 | 2496 ft | 133 kts | 13° |
| 2026-04-23 19:14 | 54.72741 | -4.56256 | 2497 ft | 133 kts | 14° |
| 2026-04-23 19:14 | 54.73653 | -4.56005 | 2494 ft | 133 kts | 14° |
| 2026-04-23 19:15 | 54.74562 | -4.55757 | 2493 ft | 133 kts | 14° |
| 2026-04-23 19:15 | 54.75468 | -4.55506 | 2494 ft | 134 kts | 13° |
| 2026-04-23 19:15 | 54.76385 | -4.55255 | 2498 ft | 133 kts | 13° |
| 2026-04-23 19:15 | 54.77294 | -4.55007 | 2498 ft | 132 kts | 14° |
| 2026-04-23 19:16 | 54.78206 | -4.54753 | 2503 ft | 133 kts | 14° |
| 2026-04-23 19:16 | 54.79120 | -4.54502 | 2501 ft | 133 kts | 14° |
| 2026-04-23 19:16 | 54.80032 | -4.54251 | 2501 ft | 133 kts | 14° |
| 2026-04-23 19:17 | 54.81845 | -4.53753 | 2504 ft | 133 kts | 14° |
| 2026-04-23 19:17 | 54.82769 | -4.53499 | 2498 ft | 133 kts | 14° |
| 2026-04-23 19:17 | 54.83670 | -4.53250 | 2499 ft | 133 kts | 13° |
| 2026-04-23 19:17 | 54.84583 | -4.52996 | 2497 ft | 134 kts | 13° |
| 2026-04-23 19:18 | 54.85503 | -4.52741 | 2509 ft | 134 kts | 13° |
| 2026-04-23 19:18 | 54.86417 | -4.52490 | 2505 ft | 132 kts | 13° |
| 2026-04-23 19:18 | 54.87328 | -4.52239 | 2503 ft | 133 kts | 14° |
| 2026-04-23 19:18 | 54.88239 | -4.51987 | 2500 ft | 133 kts | 14° |
| 2026-04-23 19:19 | 54.90060 | -4.51485 | 2499 ft | 133 kts | 14° |
| 2026-04-23 19:19 | 54.90971 | -4.51232 | 2500 ft | 132 kts | 14° |
| 2026-04-23 19:20 | 54.92776 | -4.50734 | 2493 ft | 132 kts | 14° |
| 2026-04-23 19:20 | 54.93679 | -4.50485 | 2497 ft | 131 kts | 14° |
| 2026-04-23 19:20 | 54.94584 | -4.50234 | 2503 ft | 131 kts | 14° |
| 2026-04-23 19:20 | 54.95482 | -4.49986 | 2499 ft | 131 kts | 14° |
| 2026-04-23 19:21 | 54.96383 | -4.49735 | 2505 ft | 132 kts | 14° |
| 2026-04-23 19:21 | 54.98194 | -4.49230 | 2528 ft | 132 kts | 15° |
| 2026-04-23 19:21 | 54.99083 | -4.48966 | 2782 ft | 131 kts | 15° |
| 2026-04-23 19:22 | 54.99966 | -4.48707 | 3037 ft | 127 kts | 14° |
| 2026-04-23 19:22 | 55.00822 | -4.48459 | 3284 ft | 123 kts | 14° |
| 2026-04-23 19:22 | 55.02562 | -4.47969 | 3461 ft | 132 kts | 12° |
| 2026-04-23 19:23 | 55.03484 | -4.47714 | 3486 ft | 137 kts | 10° |
| 2026-04-23 19:23 | 55.04423 | -4.47473 | 3500 ft | 136 kts | 9° |
| 2026-04-23 19:23 | 55.04889 | -4.47353 | 3499 ft | 135 kts | 10° |
| 2026-04-23 19:24 | 55.06767 | -4.46843 | 3503 ft | 137 kts | 7° |
| 2026-04-23 19:24 | 55.07699 | -4.46576 | 3501 ft | 136 kts | 10° |
| 2026-04-23 19:24 | 55.09553 | -4.46051 | 3507 ft | 136 kts | 11° |
| 2026-04-23 19:25 | 55.11414 | -4.45541 | 3507 ft | 135 kts | 8° |
| 2026-04-23 19:25 | 55.13270 | -4.45031 | 3509 ft | 134 kts | 11° |
| 2026-04-23 19:26 | 55.15141 | -4.44521 | 3512 ft | 137 kts | 6° |
| 2026-04-23 19:26 | 55.16072 | -4.44257 | 3508 ft | 135 kts | 7° |
| 2026-04-23 19:27 | 55.17922 | -4.43726 | 3506 ft | 136 kts | 11° |
| 2026-04-23 19:27 | 55.20657 | -4.42990 | 3082 ft | 131 kts | 12° |
| 2026-04-23 19:28 | 55.22445 | -4.42506 | 2719 ft | 129 kts | 12° |
| 2026-04-23 19:28 | 55.24209 | -4.42004 | 2544 ft | 129 kts | 13° |
| 2026-04-23 19:29 | 55.25099 | -4.41740 | 2524 ft | 130 kts | 13° |
| 2026-04-23 19:29 | 55.26878 | -4.41225 | 2505 ft | 130 kts | 13° |
| 2026-04-23 19:30 | 55.28646 | -4.40718 | 2502 ft | 129 kts | 13° |
| 2026-04-23 19:30 | 55.29517 | -4.40468 | 2504 ft | 128 kts | 12° |
| 2026-04-23 19:30 | 55.31284 | -4.39964 | 2504 ft | 128 kts | 12° |
| 2026-04-23 19:31 | 55.32181 | -4.39839 | 2502 ft | 132 kts | 356° |
| 2026-04-23 19:31 | 55.33072 | -4.40206 | 2503 ft | 132 kts | 343° |
| 2026-04-23 19:31 | 55.33921 | -4.40813 | 2502 ft | 132 kts | 336° |
| 2026-04-23 19:31 | 55.34745 | -4.41515 | 2500 ft | 131 kts | 335° |
| 2026-04-23 19:32 | 55.35563 | -4.42238 | 2504 ft | 132 kts | 334° |
| 2026-04-23 19:32 | 55.36381 | -4.42971 | 2504 ft | 133 kts | 335° |
| 2026-04-23 19:32 | 55.37200 | -4.43698 | 2503 ft | 134 kts | 334° |
| 2026-04-23 19:32 | 55.38031 | -4.44428 | 2500 ft | 134 kts | 334° |
| 2026-04-23 19:33 | 55.38865 | -4.45156 | 2498 ft | 134 kts | 334° |
| 2026-04-23 19:33 | 55.39706 | -4.45891 | 2439 ft | 138 kts | 334° |
| 2026-04-23 19:33 | 55.41457 | -4.47360 | 2303 ft | 130 kts | 330° |
| 2026-04-23 19:34 | 55.42282 | -4.47946 | 2152 ft | 128 kts | 334° |
| 2026-04-23 19:34 | 55.43088 | -4.48507 | 1904 ft | 118 kts | 334° |
| 2026-04-23 19:34 | 55.44452 | -4.49560 | 1588 ft | 99 kts | 332° |
| 2026-04-23 19:35 | 55.45082 | -4.50056 | 1377 ft | 99 kts | 335° |
| 2026-04-23 19:35 | 55.45673 | -4.50579 | 1231 ft | 90 kts | 334° |
| 2026-04-23 19:35 | 55.46192 | -4.51114 | 1119 ft | 83 kts | 322° |
| 2026-04-23 19:35 | 55.46650 | -4.51684 | 1009 ft | 79 kts | 334° |
| 2026-04-23 19:36 | 55.47093 | -4.52218 | 866 ft | 76 kts | 326° |
| 2026-04-23 19:36 | 55.47520 | -4.52725 | 778 ft | 69 kts | 323° |
| 2026-04-23 19:36 | 55.47879 | -4.53201 | 709 ft | 64 kts | 322° |
| 2026-04-23 19:36 | 55.48234 | -4.53600 | 658 ft | 58 kts | 327° |
| 2026-04-23 19:37 | 55.48542 | -4.54007 | 624 ft | 57 kts | 321° |
| 2026-04-23 19:37 | 55.48871 | -4.54517 | 511 ft | 68 kts | 319° |
| 2026-04-23 19:37 | 55.49235 | -4.55081 | 419 ft | 69 kts | 316° |
| 2026-04-23 19:37 | 55.49559 | -4.55683 | 353 ft | 66 kts | 309° |
| 2026-04-23 19:38 | 55.49840 | -4.56310 | 292 ft | 67 kts | 292° |
| 2026-04-23 19:38 | 55.50093 | -4.57044 | 196 ft | 72 kts | 303° |
| 2026-04-23 19:38 | 55.50361 | -4.57791 | 86 ft | 70 kts | 304° |
| 2026-04-23 19:38 | 55.50564 | -4.58365 | 51 ft | 33 kts | 302° |
| 2026-04-23 19:39 | 55.50644 | -4.58581 | 48 ft | 13 kts | 302° |
| 2026-04-23 19:39 | 55.50661 | -4.58642 | 47 ft | 0 kts | 292° |
| 2026-04-23 19:39 | 55.50739 | -4.58848 | 56 ft | 41 kts | 301° |
| 2026-04-23 19:39 | 55.50852 | -4.58937 | 56 ft | 27 kts | 40° |
| 2026-04-23 19:40 | 55.50952 | -4.58527 | 50 ft | 35 kts | 39° |
| 2026-04-23 19:40 | 55.51046 | -4.58189 | 74 ft | 37 kts | 42° |
| 2026-04-23 19:40 | 55.51170 | -4.58180 | 93 ft | 27 kts | 200° |
| 2026-04-23 19:40 | 55.51043 | -4.58319 | 69 ft | 19 kts | 168° |
| 2026-04-23 19:41 | 55.50966 | -4.58256 | 55 ft | 5 kts | 279° |
| 2026-04-23 19:41 | 55.50962 | -4.58276 | 51 ft | 2 kts | 345° |
| 2026-04-23 19:41 | 55.50966 | -4.58277 | 46 ft | 0 kts | 359° |